createdAt,value
2022-11-20T00:01:27.980Z,0.74
2022-11-20T00:03:59.190Z,0.67
2022-11-20T00:06:29.093Z,0.72
2022-11-20T00:08:58.058Z,0.69
2022-11-20T00:11:27.810Z,0.59
2022-11-20T00:13:58.939Z,0.40
2022-11-20T00:16:28.930Z,0.38
2022-11-20T00:18:56.498Z,0.69
2022-11-20T00:21:26.117Z,0.64
2022-11-20T00:23:55.645Z,0.43
2022-11-20T00:26:25.422Z,0.48
2022-11-20T00:28:58.160Z,0.42
2022-11-20T00:31:26.584Z,0.51
2022-11-20T00:33:54.854Z,0.46
2022-11-20T00:36:30.350Z,0.60
2022-11-20T00:39:00.282Z,0.59
2022-11-20T00:41:29.144Z,0.51
2022-11-20T00:43:57.288Z,0.60
2022-11-20T00:46:26.956Z,0.59
2022-11-20T00:48:54.742Z,0.43
2022-11-20T00:51:25.532Z,0.56
2022-11-20T00:53:53.010Z,0.64
2022-11-20T00:56:21.062Z,0.54
2022-11-20T00:58:50.022Z,0.45
2022-11-20T01:01:25.335Z,0.50
2022-11-20T01:03:55.689Z,0.50
2022-11-20T01:06:28.173Z,0.50
2022-11-20T01:08:58.615Z,0.51
2022-11-20T01:11:31.177Z,0.40
2022-11-20T01:14:00.087Z,0.56
2022-11-20T01:16:39.889Z,0.54
2022-11-20T01:19:14.804Z,0.51
2022-11-20T01:21:45.775Z,0.56
2022-11-20T01:24:15.854Z,0.60
2022-11-20T01:26:44.049Z,0.55
2022-11-20T01:29:16.438Z,0.54
2022-11-20T01:31:44.359Z,0.62
2022-11-20T01:41:34.214Z,0.46
2022-11-20T01:44:04.435Z,0.48
2022-11-20T01:46:37.181Z,0.56
2022-11-20T01:49:22.032Z,0.58
2022-11-20T01:51:53.006Z,0.62
2022-11-20T01:54:25.271Z,0.61
2022-11-20T01:56:53.501Z,0.62
2022-11-20T01:59:21.608Z,0.62
2022-11-20T02:01:51.711Z,0.69
2022-11-20T02:04:22.668Z,0.74
2022-11-20T02:06:53.881Z,0.78
2022-11-20T02:09:21.463Z,0.69
2022-11-20T02:11:51.303Z,0.70
2022-11-20T02:14:18.719Z,0.76
2022-11-20T02:16:48.201Z,0.80
2022-11-20T02:19:32.116Z,0.84
2022-11-20T02:22:21.026Z,0.90
2022-11-20T02:24:50.360Z,0.88
2022-11-20T02:27:20.382Z,0.93
2022-11-20T02:30:03.791Z,0.95
2022-11-20T02:32:36.371Z,0.87
2022-11-20T02:35:31.360Z,0.79
2022-11-20T02:38:03.563Z,0.76
2022-11-20T02:40:32.581Z,0.76
2022-11-20T02:43:01.312Z,0.83
2022-11-20T02:45:29.409Z,0.78
2022-11-20T02:47:56.785Z,0.91
2022-11-20T02:50:24.499Z,0.86
2022-11-20T02:52:51.837Z,0.87
2022-11-20T02:55:19.313Z,0.94
2022-11-20T02:57:46.344Z,0.88
2022-11-20T03:00:15.254Z,0.89
2022-11-20T03:02:44.892Z,0.90
2022-11-20T03:05:12.349Z,0.86
2022-11-20T03:07:40.764Z,0.95
2022-11-20T03:10:08.428Z,0.93
2022-11-20T03:12:35.685Z,0.89
2022-11-20T03:15:06.313Z,0.89
2022-11-20T03:17:36.026Z,1.01
2022-11-20T03:20:04.767Z,0.98
2022-11-20T03:22:32.354Z,1.00
2022-11-20T03:25:00.166Z,0.95
2022-11-20T03:27:27.255Z,1.02
2022-11-20T03:29:54.414Z,1.06
2022-11-20T03:32:21.735Z,1.10
2022-11-20T03:34:50.542Z,1.14
2022-11-20T03:37:25.489Z,1.12
2022-11-20T03:39:57.502Z,1.06
2022-11-20T03:42:48.770Z,0.94
2022-11-20T03:45:20.304Z,0.90
2022-11-20T03:47:50.109Z,0.83
2022-11-20T03:50:18.949Z,0.89
2022-11-20T03:52:47.398Z,0.84
2022-11-20T03:55:18.616Z,0.92
2022-11-20T03:57:47.611Z,0.92
2022-11-20T04:00:18.203Z,0.84
2022-11-20T04:02:49.740Z,0.91
2022-11-20T04:05:21.681Z,0.90
2022-11-20T04:08:14.457Z,0.92
2022-11-20T04:10:47.318Z,0.86
2022-11-20T04:13:20.720Z,0.85
2022-11-20T04:15:56.474Z,0.79
2022-11-20T04:18:26.130Z,0.70
2022-11-20T04:21:04.408Z,0.59
2022-11-20T04:23:38.940Z,0.67
2022-11-20T04:26:15.268Z,0.58
2022-11-20T04:28:44.156Z,0.70
2022-11-20T04:31:17.409Z,0.60
2022-11-20T04:33:53.675Z,0.49
2022-11-20T04:36:32.945Z,0.50
2022-11-20T04:39:18.705Z,0.50
2022-11-20T04:42:18.824Z,0.46
2022-11-20T04:45:09.693Z,0.41
2022-11-20T04:47:38.624Z,0.41
2022-11-20T04:50:10.378Z,0.46
2022-11-20T04:52:41.076Z,0.43
2022-11-20T04:55:12.069Z,0.44
2022-11-20T04:57:42.429Z,0.43
2022-11-20T05:00:10.871Z,0.42
2022-11-20T05:02:51.408Z,0.39
2022-11-20T05:05:21.900Z,0.33
2022-11-20T05:10:40.071Z,0.21
2022-11-20T05:13:09.039Z,0.26
2022-11-20T05:15:42.443Z,0.20
2022-11-20T05:18:10.086Z,0.15
2022-11-20T05:20:37.896Z,0.15
2022-11-20T05:23:05.764Z,0.15
2022-11-20T05:25:35.086Z,0.16
2022-11-20T05:28:04.391Z,0.24
2022-11-20T05:30:36.060Z,0.11
2022-11-20T05:33:35.622Z,0.22
2022-11-20T05:36:06.079Z,0.23
2022-11-20T05:41:25.491Z,0.12
2022-11-20T05:43:58.615Z,0.06
2022-11-20T05:46:36.811Z,0.00
2022-11-20T05:49:06.694Z,0.08
2022-11-20T05:51:45.210Z,0.24
2022-11-20T05:54:16.740Z,0.32
2022-11-20T05:57:23.000Z,0.37
2022-11-20T05:59:53.047Z,0.34
2022-11-20T06:02:23.521Z,0.06
2022-11-20T06:04:59.407Z,0.19
2022-11-20T08:14:16.324Z,2.63
2022-11-20T08:16:50.403Z,2.94
2022-11-20T08:19:18.932Z,3.06
2022-11-20T08:21:45.783Z,3.09
2022-11-20T08:24:12.980Z,3.01
2022-11-20T08:26:42.121Z,3.10
2022-11-20T08:29:08.869Z,3.19
2022-11-20T08:31:35.646Z,3.27
2022-11-20T08:34:07.712Z,3.40
2022-11-20T08:36:36.039Z,3.41
2022-11-20T08:39:02.824Z,3.58
2022-11-20T08:41:31.769Z,3.68
2022-11-20T08:44:00.689Z,3.66
2022-11-20T08:46:36.424Z,3.64
2022-11-20T08:49:03.533Z,3.74
2022-11-20T08:51:30.210Z,3.69
2022-11-20T08:53:56.832Z,3.89
2022-11-20T08:56:23.498Z,4.02
2022-11-20T08:59:18.318Z,4.25
2022-11-20T09:01:40.014Z,4.47
2022-11-20T09:04:06.677Z,4.55
2022-11-20T09:06:33.226Z,4.41
2022-11-20T09:09:05.004Z,4.46
2022-11-20T09:11:33.335Z,4.38
2022-11-20T09:13:59.961Z,4.26
2022-11-20T09:16:26.523Z,4.17
2022-11-20T09:19:07.305Z,4.36
2022-11-20T09:21:39.636Z,4.55
2022-11-20T09:24:06.479Z,4.58
2022-11-20T09:26:33.070Z,4.69
2022-11-20T09:28:59.573Z,4.94
2022-11-20T09:31:27.174Z,5.01
2022-11-20T09:33:53.775Z,5.21
2022-11-20T09:36:20.518Z,5.45
2022-11-20T09:38:47.723Z,5.59
2022-11-20T09:41:48.793Z,5.69
2022-11-20T09:44:33.078Z,5.66
2022-11-20T09:47:09.447Z,5.89
2022-11-20T09:49:39.008Z,5.98
2022-11-20T09:52:39.519Z,5.99
2022-11-20T09:55:10.218Z,5.81
2022-11-20T09:57:39.528Z,5.94
2022-11-20T10:00:07.864Z,6.05
2022-11-20T10:02:53.546Z,6.10
2022-11-20T10:05:24.219Z,6.11
2022-11-20T10:08:03.076Z,6.19
2022-11-20T10:10:34.155Z,6.08
2022-11-20T10:13:13.035Z,6.34
2022-11-20T10:15:49.040Z,6.60
2022-11-20T10:18:28.450Z,6.63
2022-11-20T10:21:07.051Z,6.77
2022-11-20T10:24:09.231Z,6.74
2022-11-20T10:26:48.667Z,6.79
2022-11-20T10:29:20.543Z,6.72
2022-11-20T10:31:51.211Z,6.77
2022-11-20T10:34:26.459Z,6.65
2022-11-20T10:36:59.314Z,6.42
2022-11-20T10:39:34.019Z,6.44
2022-11-20T10:42:00.696Z,6.49
2022-11-20T10:44:47.895Z,6.74
2022-11-20T10:47:17.156Z,7.01
2022-11-20T10:49:50.320Z,7.19
2022-11-20T10:52:32.231Z,7.42
2022-11-20T10:55:20.103Z,7.59
2022-11-20T10:57:49.648Z,7.62
2022-11-20T11:00:18.148Z,7.65
2022-11-20T11:02:53.056Z,7.77
2022-11-20T11:05:41.756Z,7.83
2022-11-20T11:08:13.862Z,7.87
2022-11-20T11:10:54.684Z,7.87
2022-11-20T11:13:26.500Z,7.92
2022-11-20T11:15:53.920Z,8.07
2022-11-20T11:18:28.675Z,8.08
2022-11-20T11:20:56.264Z,8.28
2022-11-20T11:23:42.671Z,8.31
2022-11-20T11:26:26.782Z,8.45
2022-11-20T11:29:04.221Z,8.58
2022-11-20T11:31:35.479Z,8.67
2022-11-20T11:34:19.974Z,8.66
2022-11-20T11:36:57.733Z,8.77
2022-11-20T11:39:25.319Z,8.72
2022-11-20T11:41:52.718Z,8.73
2022-11-20T11:44:45.525Z,8.77
2022-11-20T11:47:25.155Z,8.66
2022-11-20T11:50:10.991Z,8.69
2022-11-20T11:52:48.261Z,8.57
2022-11-20T11:55:55.851Z,8.59
2022-11-20T11:58:37.547Z,8.62
2022-11-20T12:01:11.634Z,8.56
2022-11-20T12:03:39.705Z,8.45
2022-11-20T12:06:15.188Z,8.32
2022-11-20T12:08:50.370Z,8.23
2022-11-20T12:11:23.879Z,8.16
2022-11-20T12:14:16.436Z,8.01
2022-11-20T12:16:43.157Z,7.84
2022-11-20T12:19:14.508Z,7.80
2022-11-20T12:22:12.370Z,7.79
2022-11-20T12:24:50.231Z,7.83
2022-11-20T12:27:43.118Z,7.76
2022-11-20T12:30:14.300Z,7.68
2022-11-20T12:33:08.531Z,7.70
2022-11-20T12:35:56.609Z,7.65
2022-11-20T12:38:41.858Z,7.64
2022-11-20T12:41:47.289Z,7.63
2022-11-20T12:44:55.899Z,7.63
2022-11-20T12:47:32.805Z,7.61
2022-11-20T12:50:19.721Z,7.80
2022-11-20T12:52:56.757Z,7.59
2022-11-20T12:55:34.524Z,7.60
2022-11-20T12:58:19.581Z,7.64
2022-11-20T13:01:50.612Z,7.57
2022-11-20T13:04:41.853Z,7.44
2022-11-20T13:07:11.489Z,7.30
2022-11-20T13:09:45.175Z,7.38
2022-11-20T13:12:23.639Z,7.32
2022-11-20T13:15:12.723Z,7.25
2022-11-20T13:17:46.777Z,7.08
2022-11-20T13:20:16.438Z,6.91
2022-11-20T13:22:48.043Z,6.79
2022-11-20T13:25:26.902Z,6.58
2022-11-20T13:27:54.002Z,6.58
2022-11-20T13:30:25.653Z,6.56
2022-11-20T13:33:05.418Z,6.53
2022-11-20T13:35:34.492Z,6.45
2022-11-20T13:38:01.938Z,6.49
2022-11-20T13:40:28.573Z,6.53
2022-11-20T13:42:55.084Z,6.55
2022-11-20T13:45:29.975Z,6.56
2022-11-20T13:47:57.820Z,6.59
2022-11-20T13:50:50.021Z,6.68
2022-11-20T13:53:41.851Z,6.70
2022-11-20T13:56:37.744Z,6.59
2022-11-20T13:59:42.980Z,6.55
2022-11-20T14:02:16.300Z,6.54
2022-11-20T14:04:54.357Z,6.51
2022-11-20T14:07:23.280Z,6.64
2022-11-20T14:09:55.902Z,6.55
2022-11-20T14:12:31.812Z,6.53
2022-11-20T14:14:59.030Z,6.47
2022-11-20T14:17:32.431Z,6.43
2022-11-20T14:20:02.499Z,6.29
2022-11-20T14:22:29.442Z,6.26
2022-11-20T14:25:24.253Z,6.34
2022-11-20T14:27:56.366Z,6.38
2022-11-20T14:30:25.477Z,6.40
2022-11-20T14:32:53.020Z,6.27
2022-11-20T14:35:45.484Z,6.21
2022-11-20T14:38:15.723Z,6.12
2022-11-20T14:40:43.291Z,5.99
2022-11-20T14:43:22.708Z,5.84
2022-11-20T14:46:03.214Z,5.78
2022-11-20T14:48:37.914Z,5.68
2022-11-20T14:51:04.854Z,5.50
2022-11-20T14:53:31.401Z,5.40
2022-11-20T14:56:00.659Z,5.18
2022-11-20T14:58:30.145Z,5.04
2022-11-20T15:01:06.684Z,4.94
2022-11-20T15:03:40.321Z,4.94
2022-11-20T15:06:09.017Z,4.72
2022-11-20T15:08:36.138Z,4.62
2022-11-20T15:11:03.089Z,4.50
2022-11-20T15:13:35.710Z,4.37
2022-11-20T15:16:03.237Z,4.29
2022-11-20T15:18:48.293Z,4.14
2022-11-20T15:21:16.960Z,4.00
2022-11-20T15:23:43.982Z,3.86
2022-11-20T15:26:18.385Z,3.82
2022-11-20T15:28:51.287Z,3.72
2022-11-20T15:31:20.814Z,3.59
2022-11-20T15:33:47.620Z,3.49
2022-11-20T15:36:14.401Z,3.38
2022-11-20T15:38:41.381Z,3.29
2022-11-20T15:41:08.550Z,3.14
2022-11-20T15:43:35.387Z,3.13
2022-11-20T15:46:07.617Z,3.05
2022-11-20T15:48:47.884Z,2.97
2022-11-20T15:51:28.138Z,2.92
2022-11-20T15:53:55.944Z,2.87
2022-11-20T15:56:22.680Z,2.83
2022-11-20T15:58:49.278Z,2.84
2022-11-20T16:01:18.977Z,2.83
2022-11-20T16:03:46.069Z,2.88
2022-11-20T16:06:12.633Z,2.83
2022-11-20T16:08:39.188Z,2.78
2022-11-20T16:11:05.860Z,2.71
2022-11-20T16:13:51.489Z,2.66
2022-11-20T16:16:29.702Z,2.65
2022-11-20T16:18:56.314Z,2.60
2022-11-20T16:21:28.394Z,2.44
2022-11-20T16:23:55.044Z,2.39
2022-11-20T16:26:21.760Z,2.42
2022-11-20T16:28:48.343Z,2.33
2022-11-20T16:31:17.821Z,2.20
2022-11-20T16:33:50.143Z,2.17
2022-11-20T16:36:16.826Z,2.14
2022-11-20T16:38:43.348Z,2.07
2022-11-20T16:41:14.417Z,2.04
2022-11-20T16:43:51.924Z,2.08
2022-11-20T16:46:20.178Z,2.06
2022-11-20T16:48:56.121Z,2.03
2022-11-20T16:51:24.150Z,2.00
2022-11-20T16:53:51.335Z,1.95
2022-11-20T16:56:20.261Z,1.89
2022-11-20T16:58:48.662Z,1.81
2022-11-20T17:01:17.381Z,1.72
2022-11-20T17:03:46.309Z,1.66
2022-11-20T17:06:17.591Z,1.71
2022-11-20T17:08:45.000Z,1.83
2022-11-20T17:11:13.397Z,1.75
2022-11-20T17:13:40.373Z,1.66
2022-11-20T17:16:14.825Z,1.53
2022-11-20T17:18:41.554Z,1.44
2022-11-20T17:21:08.164Z,1.37
2022-11-20T17:23:37.329Z,1.26
2022-11-20T17:26:06.045Z,1.22
2022-11-20T17:28:32.834Z,1.16
2022-11-20T17:31:04.562Z,1.07
2022-11-20T17:33:31.173Z,0.99
2022-11-20T17:35:57.908Z,0.98
2022-11-20T17:38:24.740Z,0.91
2022-11-20T17:40:51.425Z,0.89
2022-11-20T17:43:18.035Z,0.88
2022-11-20T17:45:45.107Z,0.79
2022-11-20T17:48:12.442Z,0.85
2022-11-20T17:50:40.155Z,0.92
2022-11-20T17:53:07.557Z,0.95
2022-11-20T17:55:55.812Z,0.84
2022-11-20T17:58:25.136Z,0.88
2022-11-20T18:00:51.945Z,0.91
2022-11-20T18:03:18.570Z,0.97
2022-11-20T18:05:45.116Z,0.85
2022-11-20T18:08:11.673Z,0.72
2022-11-20T18:10:38.444Z,0.78
2022-11-20T18:13:05.026Z,0.85
2022-11-20T18:15:31.649Z,0.91
2022-11-20T18:17:58.247Z,0.87
2022-11-20T18:20:31.097Z,0.93
2022-11-20T18:22:58.832Z,0.89
2022-11-20T18:25:25.430Z,0.77
2022-11-20T18:27:52.001Z,0.78
2022-11-20T18:30:18.601Z,0.74
2022-11-20T18:32:45.279Z,0.75
2022-11-20T18:35:11.929Z,0.83
2022-11-20T18:37:38.483Z,1.00
2022-11-20T18:40:05.611Z,0.86
2022-11-20T18:42:50.492Z,0.89
2022-11-20T18:45:17.218Z,0.84
2022-11-20T18:47:44.060Z,0.78
2022-11-20T18:50:10.713Z,0.80
2022-11-20T18:52:41.995Z,0.79
2022-11-20T18:55:09.220Z,0.76
2022-11-20T18:57:35.919Z,0.73
2022-11-20T19:00:08.875Z,0.77
2022-11-20T19:02:41.131Z,0.75
2022-11-20T19:05:13.467Z,0.79
2022-11-20T19:07:42.413Z,0.83
2022-11-20T19:10:09.409Z,0.77
2022-11-20T19:12:36.007Z,0.75
2022-11-20T19:15:02.789Z,0.78
2022-11-20T19:17:29.425Z,0.76
2022-11-20T19:19:56.100Z,0.72
2022-11-20T19:22:22.811Z,0.73
2022-11-20T19:24:49.528Z,0.61
2022-11-20T19:27:16.370Z,0.58
2022-11-20T19:29:43.008Z,0.63
2022-11-20T19:32:09.628Z,0.60
2022-11-20T19:34:36.199Z,0.58
2022-11-20T19:37:02.849Z,0.61
2022-11-20T19:39:29.521Z,0.54
2022-11-20T19:41:56.166Z,0.54
2022-11-20T19:44:22.821Z,0.68
2022-11-20T19:46:50.892Z,0.59
2022-11-20T19:49:17.555Z,0.53
2022-11-20T19:51:46.698Z,0.56
2022-11-20T19:54:13.631Z,0.50
2022-11-20T19:56:40.284Z,0.58
2022-11-20T19:59:06.846Z,0.54
2022-11-20T20:01:35.391Z,0.57
2022-11-20T20:04:03.589Z,0.51
2022-11-20T20:06:30.864Z,0.49
2022-11-20T20:09:08.827Z,0.42
2022-11-20T20:11:36.032Z,0.50
2022-11-20T20:14:10.804Z,0.58
2022-11-20T20:16:37.515Z,0.52
2022-11-20T20:19:05.348Z,0.53
2022-11-20T20:21:34.040Z,0.48
2022-11-20T20:24:01.059Z,0.53
2022-11-20T20:26:30.624Z,0.49
2022-11-20T20:28:57.573Z,0.52
2022-11-20T20:31:26.793Z,0.42
2022-11-20T20:33:53.978Z,0.40
2022-11-20T20:36:22.122Z,0.40
2022-11-20T20:38:52.515Z,0.35
2022-11-20T20:41:20.292Z,0.29
2022-11-20T20:44:05.696Z,0.27
2022-11-20T20:46:32.273Z,0.29
2022-11-20T20:48:58.847Z,0.31
2022-11-20T20:51:25.492Z,0.37
2022-11-20T20:53:52.066Z,0.28
2022-11-20T20:56:18.779Z,0.31
2022-11-20T20:58:45.669Z,0.32
2022-11-20T21:01:17.067Z,0.31
2022-11-20T21:03:43.829Z,0.42
2022-11-20T21:06:11.333Z,0.46
2022-11-20T21:08:40.652Z,0.48
2022-11-20T21:11:13.004Z,0.52
2022-11-20T21:13:40.523Z,0.52
2022-11-20T21:16:07.438Z,0.62
2022-11-20T21:18:34.598Z,0.60
2022-11-20T21:21:23.494Z,0.56
2022-11-20T21:23:51.335Z,0.52
2022-11-20T21:26:17.875Z,0.49
2022-11-20T21:28:44.535Z,0.49
2022-11-20T21:31:16.559Z,0.56
2022-11-20T21:33:44.755Z,0.59
2022-11-20T21:36:16.128Z,0.57
2022-11-20T21:38:43.271Z,0.54
2022-11-20T21:41:11.110Z,0.50
2022-11-20T21:43:38.150Z,0.52
2022-11-20T21:46:10.157Z,0.51
2022-11-20T21:48:38.084Z,0.54
2022-11-20T21:51:12.536Z,0.49
2022-11-20T21:53:39.706Z,0.52
2022-11-20T21:56:08.446Z,0.50
2022-11-20T21:58:35.945Z,0.42
2022-11-20T22:01:13.504Z,0.43
2022-11-20T22:03:40.506Z,0.40
2022-11-20T22:06:08.620Z,0.41
2022-11-20T22:08:36.384Z,0.44
2022-11-20T22:11:08.697Z,0.51
2022-11-20T22:13:53.879Z,0.59
2022-11-20T22:16:20.981Z,0.59
2022-11-20T22:18:50.783Z,0.60
2022-11-20T22:21:19.593Z,0.69
2022-11-20T22:23:46.256Z,0.74
2022-11-20T22:26:15.039Z,0.78
2022-11-20T22:28:42.133Z,0.90
2022-11-20T22:31:11.798Z,0.94
2022-11-20T22:33:39.094Z,1.00
2022-11-20T22:36:08.247Z,1.01
2022-11-20T22:38:39.147Z,1.00
2022-11-20T22:41:10.255Z,1.03
2022-11-20T22:43:37.225Z,1.10
2022-11-20T22:46:05.583Z,1.18
2022-11-20T22:48:33.574Z,1.17
2022-11-20T22:51:20.234Z,1.17
2022-11-20T22:53:47.398Z,1.13
2022-11-20T22:56:14.579Z,1.07
2022-11-20T22:58:43.451Z,0.98
2022-11-20T23:01:12.401Z,1.01
2022-11-20T23:03:39.872Z,0.99
2022-11-20T23:06:07.033Z,0.93
2022-11-20T23:08:33.873Z,0.95
2022-11-20T23:11:08.699Z,0.94
2022-11-20T23:13:35.823Z,0.86
2022-11-20T23:16:05.801Z,0.91
2022-11-20T23:18:33.835Z,0.91
2022-11-20T23:21:08.397Z,0.92
2022-11-20T23:23:35.153Z,0.97
2022-11-20T23:26:07.020Z,0.92
2022-11-20T23:28:34.047Z,0.90
2022-11-20T23:31:01.064Z,0.82
2022-11-20T23:33:27.775Z,0.89
2022-11-20T23:35:54.603Z,0.81
2022-11-20T23:38:21.637Z,0.76
2022-11-20T23:40:52.271Z,0.64
2022-11-20T23:43:20.558Z,0.57
2022-11-20T23:45:49.168Z,0.52
2022-11-20T23:48:15.831Z,0.47
2022-11-20T23:50:43.727Z,0.43
2022-11-20T23:53:11.565Z,0.36
2022-11-20T23:55:38.252Z,0.32
2022-11-20T23:58:05.285Z,0.23
